« Back
NWS Peachtree City, Ga » Text Product » MCN Terminal Aerodrome Forecast


Printer-friendly Version
Current Version              Previous Versions:   1  2  3  4  5  6  7  8  9  

Terminal Aerodrome Forecast

677
FTUS42 KFFC 301549 AAB
TAFMCN
TAF AMD
KMCN 301549Z 3016/3112 03006KT P6SM FEW040
     FM301700 34007KT P6SM VCSH BKN040
      TEMPO 3019/3022 VRB10G20KT 6SM -TSRA BKN040CB
     FM310100 VRB04KT P6SM SCT060 SCT250=

USA.gov is the U.S. government's official web portal to all federal, state and local government web resources and services.